Time;durP1;ratioP1;P1;durP2;ratioP2;P2;SDS_P1;SDS_P2;PMS_P1;PMS_P2;Temp;Humidity;BMP_temperature;BMP_pressure;BME280_temperature;BME280_humidity;BME280_pressure;Samples;Min_cycle;Max_cycle;Signal;HPM_P1;HPM_P2
2022/04/21 00:00:38;;;;;;;9.80;8.90;;;7.70;65.80;;;6.51;68.74;97504.59;5025663;28;20538;-75
2022/04/21 00:03:06;;;;;;;9.90;9.00;;;7.70;66.00;;;6.35;69.08;97495.88;5027800;28;21247;-76
2022/04/21 00:05:34;;;;;;;10.10;9.10;;;7.70;66.00;;;6.40;68.96;97495.28;5024880;28;20558;-75
2022/04/21 00:08:02;;;;;;;10.27;9.20;;;7.70;66.30;;;6.55;68.86;97486.22;5026296;28;20508;-75
2022/04/21 00:10:30;;;;;;;9.93;9.00;;;7.80;66.40;;;6.56;69.08;97485.19;5026694;28;20450;-75
2022/04/21 00:12:58;;;;;;;9.30;8.50;;;7.80;66.30;;;6.44;69.02;97487.66;5028038;28;20549;-75
2022/04/21 00:15:27;;;;;;;11.00;9.93;;;7.70;66.40;;;6.49;69.23;97482.50;5026005;28;20537;-75
2022/04/21 00:17:54;;;;;;;9.27;8.47;;;7.70;67.00;;;6.31;70.03;97477.72;5027427;28;20461;-75
2022/04/21 00:20:21;;;;;;;9.27;8.47;;;7.60;66.70;;;6.17;70.17;97483.03;5034889;28;20832;-75
2022/04/21 00:25:41;;;;;;;9.90;8.97;;;7.70;67.60;;;6.40;69.39;97473.00;4975834;28;20446;-76
2022/04/21 00:28:08;;;;;;;10.00;9.10;;;7.70;67.40;;;6.39;69.47;97480.22;5020157;28;20969;-74
2022/04/21 00:30:37;;;;;;;10.03;9.13;;;7.70;67.60;;;6.28;69.71;97478.94;5030911;28;20508;-75
2022/04/21 00:33:04;;;;;;;10.50;9.60;;;7.60;67.60;;;6.41;69.63;97478.13;5032354;28;20450;-74
2022/04/21 00:35:31;;;;;;;10.40;9.40;;;7.60;68.00;;;6.48;69.30;97479.00;5028219;28;20541;-75
2022/04/21 00:37:58;;;;;;;9.70;8.90;;;7.70;67.90;;;6.48;69.35;97478.16;5029733;28;20442;-75
2022/04/21 00:40:29;;;;;;;10.30;9.40;;;7.70;68.00;;;6.22;69.70;97459.09;5046947;28;20466;-76
2022/04/21 00:42:57;;;;;;;9.40;8.50;;;7.60;67.90;;;6.46;69.56;97485.59;5047262;28;20839;-76
2022/04/21 00:45:25;;;;;;;10.00;9.00;;;7.60;68.30;;;6.50;69.55;97478.78;5028422;28;20561;-76
2022/04/21 00:47:57;;;;;;;10.67;9.77;;;7.70;68.20;;;6.42;69.66;97477.13;5035653;28;20512;-75
2022/04/21 00:50:27;;;;;;;9.47;8.57;;;7.60;68.40;;;6.50;69.56;97484.16;5027747;28;20835;-74
2022/04/21 00:52:55;;;;;;;9.80;8.80;;;7.70;68.20;;;6.27;70.64;97477.28;5030756;28;20478;-75
2022/04/21 00:55:23;;;;;;;9.50;8.70;;;7.60;68.60;;;6.36;70.03;97480.63;5027892;28;20970;-75
2022/04/21 00:57:53;;;;;;;9.87;8.83;;;7.60;68.90;;;6.43;70.03;97476.09;5029361;28;20457;-74
2022/04/21 01:00:20;;;;;;;9.10;8.40;;;7.60;69.40;;;6.42;70.17;97476.31;5033566;28;20470;-75
2022/04/21 01:02:46;;;;;;;9.33;8.50;;;7.60;69.10;;;6.41;70.18;97474.66;5046420;28;20447;-74
2022/04/21 01:05:15;;;;;;;10.27;9.27;;;7.60;69.10;;;6.38;70.01;97474.03;5043215;28;20692;-75
2022/04/21 01:07:43;;;;;;;9.10;8.30;;;7.60;69.30;;;6.24;70.74;97477.69;5029661;28;21048;-75
2022/04/21 01:10:11;;;;;;;10.67;8.67;;;7.50;69.40;;;6.29;71.43;97474.38;5029282;28;20887;-75
2022/04/21 01:12:39;;;;;;;10.10;9.20;;;7.50;70.00;;;6.34;70.41;97469.25;5030072;28;20457;-76
2022/04/21 01:15:07;;;;;;;10.57;9.57;;;7.50;70.00;;;6.29;70.85;97471.69;5025813;28;20481;-77
2022/04/21 01:17:36;;;;;;;9.43;8.63;;;7.50;69.90;;;6.38;70.23;97478.56;5027745;28;20443;-75
2022/04/21 01:20:06;;;;;;;9.80;8.90;;;7.60;69.80;;;6.54;70.01;97465.78;5025317;28;20528;-75
2022/04/21 01:22:35;;;;;;;8.60;7.83;;;7.60;69.80;;;6.63;69.33;97460.03;5031488;28;20533;-75
2022/04/21 01:25:01;;;;;;;9.60;8.70;;;7.80;69.40;;;6.66;69.20;97469.53;5028039;28;20878;-75
2022/04/21 01:27:33;;;;;;;9.27;8.43;;;7.90;69.10;;;6.65;69.87;97463.34;5031285;28;21011;-75
2022/04/21 01:30:03;;;;;;;10.57;9.50;;;7.90;69.10;;;6.60;69.28;97462.31;5029948;28;20442;-75
2022/04/21 01:32:35;;;;;;;9.50;8.70;;;7.90;69.00;;;6.61;69.27;97451.34;5030538;28;20445;-76
2022/04/21 01:35:04;;;;;;;10.63;9.63;;;7.90;69.10;;;6.45;69.75;97441.84;5024547;28;21264;-75
2022/04/21 01:43:02;;;;;;;8.77;8.07;;;7.80;69.40;;;6.53;70.03;97454.25;5031061;28;20534;-75
2022/04/21 01:45:30;;;;;;;10.47;9.53;;;7.80;69.40;;;6.55;70.85;97451.34;5028551;28;20531;-74
2022/04/21 01:47:57;;;;;;;9.53;8.63;;;7.70;69.90;;;6.44;69.98;97450.91;5027899;28;20476;-75
2022/04/21 01:50:24;;;;;;;8.67;7.90;;;7.70;69.60;;;6.30;70.80;97451.91;5028315;28;20805;-74
2022/04/21 01:52:51;;;;;;;8.60;7.80;;;7.60;70.10;;;6.32;70.55;97453.34;5021997;28;20498;-74
2022/04/21 01:55:20;;;;;;;9.70;8.93;;;7.60;70.30;;;6.21;71.02;97454.75;5022388;28;20544;-74
2022/04/21 01:57:47;;;;;;;9.30;8.40;;;7.50;70.70;;;6.34;71.46;97445.09;5040198;28;20561;-75
2022/04/21 02:00:15;;;;;;;8.57;7.77;;;7.50;71.00;;;6.33;71.13;97440.78;5028837;28;20901;-76
2022/04/21 02:02:42;;;;;;;9.00;8.17;;;7.50;70.80;;;6.29;71.54;97434.97;5029797;28;21029;-75
2022/04/21 02:05:09;;;;;;;9.17;8.27;;;7.40;71.20;;;6.25;71.61;97441.78;5027017;28;20438;-76
2022/04/21 02:07:37;;;;;;;10.37;9.37;;;7.40;71.70;;;6.38;70.58;97432.94;5030301;28;20569;-75
2022/04/21 02:10:06;;;;;;;11.13;10.03;;;7.50;71.50;;;6.39;70.28;97442.63;5029127;28;20938;-74
2022/04/21 02:12:34;;;;;;;10.00;9.10;;;7.50;71.10;;;6.45;70.45;97430.28;5028518;28;20438;-75
2022/04/21 02:15:02;;;;;;;10.23;9.33;;;7.60;70.90;;;6.37;70.32;97439.34;5027296;28;20449;-74
2022/04/21 02:17:31;;;;;;;10.87;9.80;;;7.50;70.90;;;6.45;70.43;97425.75;5040294;28;20450;-76
2022/04/21 02:19:59;;;;;;;10.93;9.83;;;7.60;71.20;;;6.48;70.59;97429.84;5026449;28;20465;-75
2022/04/21 02:22:26;;;;;;;10.53;9.57;;;7.60;70.90;;;6.47;70.75;97431.72;5029213;28;20902;-75
2022/04/21 02:24:53;;;;;;;10.40;9.30;;;7.60;70.90;;;6.39;70.40;97421.16;5027173;28;20504;-76
2022/04/21 02:27:20;;;;;;;10.60;9.70;;;7.60;70.70;;;6.37;70.77;97434.81;5030353;28;20463;-76
2022/04/21 02:29:49;;;;;;;10.70;9.80;;;7.60;70.90;;;6.47;70.88;97434.41;5027911;28;20542;-75
2022/04/21 02:32:16;;;;;;;9.87;8.97;;;7.60;71.00;;;6.40;70.73;97438.91;5028379;28;20557;-75
2022/04/21 02:34:43;;;;;;;9.60;8.80;;;7.60;70.80;;;6.28;71.11;97435.16;5029818;28;20449;-75
2022/04/21 02:37:10;;;;;;;9.70;8.80;;;7.50;71.20;;;6.25;71.91;97433.75;5030415;28;20514;-74
2022/04/21 02:39:37;;;;;;;9.30;8.50;;;7.40;71.70;;;6.32;71.91;97431.06;5030920;28;20438;-74
2022/04/21 02:42:05;;;;;;;10.40;9.30;;;7.50;72.20;;;6.47;71.15;97428.22;5031235;28;20450;-74
2022/04/21 02:44:32;;;;;;;10.87;9.87;;;7.50;71.70;;;6.22;71.18;97426.09;5029627;28;20447;-74
2022/04/21 02:47:01;;;;;;;9.77;8.87;;;7.40;71.80;;;6.14;72.24;97429.78;5036483;28;20484;-74
2022/04/21 02:49:28;;;;;;;9.23;8.47;;;7.30;72.20;;;6.18;71.93;97431.03;5048039;28;20558;-76
2022/04/21 02:51:56;;;;;;;9.93;9.03;;;7.30;72.50;;;6.31;71.30;97407.97;5051767;28;20548;-75
2022/04/21 02:57:21;;;;;;;10.30;9.40;;;7.50;71.70;;;6.47;70.11;97406.72;5063110;28;20454;-73
2022/04/21 02:59:49;;;;;;;11.10;10.10;;;7.60;71.50;;;6.48;70.30;97411.91;5043492;28;20442;-75
2022/04/21 03:02:18;;;;;;;10.23;9.23;;;7.60;71.20;;;6.43;70.61;97406.31;5059441;28;20803;-75
2022/04/21 03:04:45;;;;;;;10.30;9.40;;;7.60;71.20;;;6.35;70.83;97419.94;5051676;28;20474;-75
2022/04/21 03:07:13;;;;;;;10.30;9.30;;;7.50;71.50;;;6.30;70.83;97406.31;5033382;28;20476;-74
2022/04/21 03:09:40;;;;;;;10.37;9.40;;;7.50;71.60;;;6.28;71.57;97408.34;5044411;28;20439;-74
2022/04/21 03:12:09;;;;;;;10.43;9.53;;;7.50;71.50;;;6.34;71.12;97410.22;5048992;28;20541;-75
2022/04/21 03:14:37;;;;;;;10.70;9.70;;;7.50;72.10;;;6.29;71.43;97404.63;5025647;28;20508;-74
2022/04/21 03:17:05;;;;;;;13.70;10.57;;;7.40;72.20;;;6.19;71.66;97416.59;5029113;28;20439;-74
2022/04/21 03:19:33;;;;;;;10.70;9.57;;;7.30;72.50;;;6.17;71.80;97413.28;5024867;28;20466;-76
2022/04/21 03:24:45;;;;;;;9.90;8.90;;;7.40;72.60;;;6.17;72.46;97424.00;5027685;28;20465;-75
2022/04/21 03:27:13;;;;;;;10.77;9.77;;;7.40;73.10;;;6.11;72.81;97419.44;5025873;28;20553;-75
2022/04/21 03:29:40;;;;;;;14.67;10.50;;;7.30;73.70;;;6.17;72.44;97393.66;5027564;28;20493;-75
2022/04/21 03:32:09;;;;;;;10.00;8.97;;;7.40;73.50;;;6.15;72.87;97417.19;5045115;28;20533;-75
2022/04/21 03:34:41;;;;;;;11.00;9.87;;;7.40;73.60;;;6.11;72.90;97414.06;5025949;28;20544;-75
2022/04/21 03:37:08;;;;;;;11.13;10.03;;;7.30;74.00;;;6.24;72.28;97408.75;5028474;28;20537;-73
2022/04/21 03:39:36;;;;;;;9.43;8.63;;;7.40;73.90;;;6.45;71.38;97406.97;5027503;28;20533;-75
2022/04/21 03:42:04;;;;;;;10.00;9.10;;;7.60;73.20;;;6.50;70.81;97391.06;5028494;28;20862;-75
2022/04/21 03:44:32;;;;;;;10.87;9.73;;;7.70;72.70;;;6.49;71.55;97394.78;5023356;28;20880;-75
2022/04/21 03:46:59;;;;;;;10.37;9.40;;;7.70;72.70;;;6.45;71.93;97398.06;5027395;28;20482;-75
2022/04/21 03:49:28;;;;;;;12.43;10.37;;;7.60;72.70;;;6.52;71.14;97397.03;5025310;28;20485;-75
2022/04/21 03:51:57;;;;;;;12.10;10.00;;;7.70;72.30;;;6.38;71.53;97395.38;5027336;28;20454;-75
2022/04/21 03:54:24;;;;;;;10.20;9.30;;;7.60;72.60;;;6.36;72.34;97395.56;5026383;28;20516;-75
2022/04/21 03:56:51;;;;;;;10.93;9.80;;;7.60;73.00;;;6.33;72.19;97403.22;5024316;28;20525;-75
2022/04/21 03:59:20;;;;;;;10.70;9.80;;;7.50;73.30;;;6.13;72.96;97389.75;5021802;28;20487;-74
2022/04/21 04:01:47;;;;;;;11.00;9.93;;;7.40;73.60;;;5.99;73.71;97387.00;5028887;28;20442;-76
2022/04/21 04:04:14;;;;;;;11.80;10.80;;;7.30;74.20;;;5.95;73.85;97389.25;5025453;28;20454;-74
2022/04/21 04:12:13;;;;;;;10.43;9.37;;;7.10;75.30;;;5.82;75.04;97395.38;5025772;28;20474;-75
2022/04/21 04:14:40;;;;;;;10.77;9.83;;;7.10;75.80;;;6.01;74.03;97397.53;5026549;28;20541;-76
2022/04/21 04:17:09;;;;;;;11.13;10.03;;;7.10;76.10;;;6.11;73.66;97397.97;5028765;28;20438;-76
2022/04/21 04:19:36;;;;;;;10.53;9.53;;;7.20;75.70;;;6.21;72.45;97387.69;5026098;28;20462;-74
2022/04/21 04:22:04;;;;;;;10.47;9.53;;;7.40;74.60;;;5.99;74.26;97395.03;5018028;28;20451;-73
2022/04/21 04:24:32;;;;;;;10.13;9.17;;;7.20;75.10;;;6.24;73.41;97398.03;5026557;28;20481;-74
2022/04/21 04:26:59;;;;;;;10.10;9.20;;;7.40;74.70;;;6.08;73.55;97406.44;5027511;28;20482;-74
2022/04/21 04:29:26;;;;;;;10.60;9.70;;;7.30;74.80;;;6.05;73.77;97409.53;5026616;28;20937;-75
2022/04/21 04:31:54;;;;;;;10.73;9.73;;;7.30;75.30;;;6.39;72.70;97394.34;5028143;28;20465;-76
2022/04/21 04:34:22;;;;;;;11.73;9.50;;;7.40;74.90;;;6.53;70.79;97387.16;5025091;28;20520;-75
2022/04/21 04:36:49;;;;;;;9.87;8.77;;;7.60;74.00;;;6.61;71.15;97394.97;5027602;28;20512;-75
2022/04/21 04:39:17;;;;;;;9.63;8.80;;;7.70;73.40;;;6.67;70.66;97393.34;5026341;28;20640;-74
2022/04/21 04:44:30;;;;;;;9.70;8.90;;;7.70;72.70;;;6.57;71.32;97395.59;5023479;28;20449;-76
2022/04/21 04:46:56;;;;;;;12.00;10.50;;;7.70;72.90;;;6.58;71.49;97390.03;5027595;28;20533;-76
2022/04/21 04:49:24;;;;;;;10.37;9.37;;;7.80;73.10;;;6.78;70.59;97392.72;5023407;28;20451;-75
2022/04/21 04:51:51;;;;;;;11.60;10.40;;;7.90;72.70;;;6.65;70.50;97398.09;5027765;28;20533;-76
2022/04/21 04:54:19;;;;;;;11.30;10.30;;;7.90;72.30;;;6.65;70.94;97388.16;5025085;28;20918;-75
2022/04/21 04:56:48;;;;;;;10.10;9.20;;;7.90;72.60;;;6.82;69.88;97392.31;5042802;28;20453;-75
2022/04/21 04:59:16;;;;;;;11.03;10.13;;;7.90;72.40;;;6.93;69.83;97395.19;5027064;28;20447;-76
2022/04/21 05:01:45;;;;;;;11.10;9.57;;;8.00;72.20;;;6.97;69.45;97392.94;5027602;28;20905;-76
2022/04/21 05:04:14;;;;;;;10.37;9.47;;;8.10;71.50;;;7.01;69.17;97393.34;5024350;28;20459;-76
2022/04/21 05:06:44;;;;;;;10.67;9.77;;;8.20;71.30;;;6.95;68.90;97378.88;5025992;28;20430;-75
2022/04/21 05:09:13;;;;;;;11.20;10.20;;;8.20;70.80;;;6.92;69.74;97384.69;5026207;28;20565;-74
2022/04/21 05:11:42;;;;;;;10.00;9.03;;;8.20;71.00;;;6.97;69.55;97379.50;5031573;28;21186;-75
2022/04/21 05:14:11;;;;;;;13.13;10.47;;;8.20;71.20;;;6.94;69.21;97380.72;5029066;28;20461;-75
2022/04/21 05:16:39;;;;;;;10.90;9.80;;;8.20;70.90;;;6.82;70.38;97378.88;5030389;28;20458;-75
2022/04/21 05:19:08;;;;;;;12.07;10.23;;;8.10;71.40;;;7.27;68.77;97383.56;5028115;28;20549;-75
2022/04/21 05:21:36;;;;;;;11.03;10.00;;;8.30;71.20;;;7.35;68.03;97384.22;5030271;28;20430;-75
2022/04/21 05:24:06;;;;;;;10.63;9.67;;;8.50;70.60;;;7.20;68.58;97386.28;5028095;28;20442;-75
2022/04/21 05:26:36;;;;;;;10.83;9.47;;;8.40;70.40;;;7.42;67.77;97380.66;5046411;28;20824;-75
2022/04/21 05:30:55;;;;;;;10.67;9.57;;;8.60;70.10;;;7.50;67.42;97389.31;5029309;28;20500;-75
2022/04/21 05:31:56;;;;;;;10.97;10.00;;;8.70;69.40;;;7.59;66.91;97387.22;5029226;28;20510;-75
2022/04/21 05:34:24;;;;;;;10.50;9.60;;;8.80;69.20;;;7.61;66.65;97369.03;5025662;28;20461;-74
2022/04/21 05:36:52;;;;;;;11.20;10.20;;;9.00;68.70;;;7.93;65.34;97328.75;5029620;28;20456;-75
2022/04/21 05:39:21;;;;;;;10.60;9.60;;;9.50;68.10;;;8.76;63.62;97381.88;5030027;28;20461;-75
2022/04/21 05:41:48;;;;;;;10.77;9.67;;;10.10;65.50;;;9.45;61.04;97397.22;5030592;28;20436;-76
2022/04/21 05:44:16;;;;;;;9.90;9.10;;;10.80;63.50;;;9.80;60.03;97385.00;5028647;28;20629;-75
2022/04/21 05:46:44;;;;;;;9.93;8.93;;;11.40;61.60;;;9.58;59.29;97388.97;5027243;28;20512;-75
2022/04/21 05:49:14;;;;;;;10.47;9.03;;;11.40;60.10;;;9.63;60.31;97383.75;5029683;28;20524;-75
2022/04/21 05:51:42;;;;;;;10.00;8.83;;;11.20;60.60;;;9.04;61.16;97386.81;5012664;28;20547;-77
2022/04/21 05:54:10;;;;;;;10.13;9.13;;;10.80;60.70;;;8.93;61.60;97392.94;5026152;28;20453;-76
2022/04/21 05:56:38;;;;;;;10.30;9.40;;;10.40;61.00;;;8.96;62.21;97395.19;5028493;28;20463;-75
2022/04/21 05:59:05;;;;;;;10.87;9.57;;;10.20;62.00;;;9.05;61.39;97385.78;5029096;28;20451;-75
2022/04/21 06:01:32;;;;;;;11.27;9.43;;;10.40;61.70;;;8.89;62.14;97389.84;5029354;28;20537;-75
2022/04/21 06:03:59;;;;;;;10.27;9.23;;;10.30;61.70;;;9.25;61.82;97386.63;5025887;28;20446;-73
2022/04/21 06:06:28;;;;;;;10.50;9.40;;;10.40;61.70;;;9.57;60.36;97390.03;5027261;28;20533;-75
2022/04/21 06:08:55;;;;;;;11.20;10.03;;;10.70;61.60;;;9.71;59.45;97384.50;5044709;28;20807;-75
2022/04/21 06:11:22;;;;;;;9.80;8.90;;;10.90;60.70;;;9.45;60.70;97386.41;5030386;28;20542;-75
2022/04/21 06:13:51;;;;;;;9.60;8.40;;;10.80;61.00;;;9.69;60.34;97378.50;5029196;28;20537;-74
2022/04/21 06:16:18;;;;;;;9.33;8.40;;;11.00;61.00;;;9.66;60.36;97387.03;5027736;28;20438;-75
2022/04/21 06:18:45;;;;;;;9.23;8.43;;;11.00;60.80;;;9.66;60.59;97381.66;5028094;28;20553;-74
2022/04/21 06:21:12;;;;;;;10.63;9.63;;;10.90;60.90;;;9.51;60.67;97382.84;5027809;28;20439;-73
2022/04/21 06:23:40;;;;;;;9.63;8.73;;;10.80;60.60;;;9.43;60.43;97383.97;5042899;28;20480;-74
2022/04/21 06:26:08;;;;;;;9.30;8.40;;;10.80;61.00;;;9.79;60.30;97386.91;5029005;28;20453;-74
2022/04/21 06:28:35;;;;;;;10.40;9.30;;;10.90;61.40;;;9.95;59.57;97384.63;5028449;28;20477;-71
2022/04/21 06:31:03;;;;;;;10.27;9.27;;;11.00;60.60;;;9.79;60.04;97384.19;5028016;28;20481;-74
2022/04/21 06:33:32;;;;;;;10.13;9.23;;;11.00;60.50;;;10.18;58.92;97379.31;5028071;28;20454;-73
2022/04/21 06:35:59;;;;;;;9.40;8.53;;;11.30;60.70;;;9.59;60.62;97389.81;5028779;28;20473;-75
2022/04/21 06:38:26;;;;;;;9.53;8.70;;;11.10;60.40;;;9.77;60.29;97384.41;5043755;28;20446;-74
2022/04/21 06:40:55;;;;;;;9.93;8.57;;;11.00;60.60;;;10.04;59.60;97394.88;5027675;28;20791;-73
2022/04/21 06:48:51;;;;;;;9.77;8.87;;;10.90;59.60;;;9.47;60.17;97389.72;5026677;28;20489;-76
2022/04/21 06:51:19;;;;;;;10.40;9.30;;;10.60;60.40;;;9.72;59.89;97384.28;5029751;28;20538;-76
2022/04/21 06:53:46;;;;;;;9.80;8.90;;;10.80;60.10;;;9.87;58.67;97381.19;5026871;28;20459;-74
2022/04/21 06:56:15;;;;;;;9.40;8.43;;;11.00;59.70;;;10.19;57.31;97386.38;5027255;28;20531;-74
2022/04/21 06:58:42;;;;;;;9.37;8.43;;;11.30;59.10;;;9.84;57.95;97392.44;5029247;28;20913;-73
2022/04/21 07:01:09;;;;;;;9.20;8.23;;;11.10;59.00;;;9.53;59.34;97394.22;5029288;28;20797;-75
2022/04/21 07:03:36;;;;;;;9.60;8.70;;;10.80;59.70;;;9.59;59.24;97390.63;5026227;28;20489;-76
2022/04/21 07:06:04;;;;;;;9.00;7.90;;;10.90;59.50;;;9.63;59.29;97389.16;5006652;28;20515;-74
2022/04/21 07:08:31;;;;;;;10.73;9.60;;;10.90;59.30;;;9.74;59.24;97392.97;5027745;28;20949;-75
2022/04/21 07:10:58;;;;;;;10.43;8.60;;;10.90;59.20;;;9.60;59.35;97389.56;5025173;28;20470;-73
2022/04/21 07:13:27;;;;;;;9.03;8.13;;;10.90;59.20;;;9.55;59.69;97386.72;5027222;28;21002;-72
2022/04/21 07:15:54;;;;;;;9.90;7.73;;;10.80;59.50;;;9.93;58.88;97384.84;5027977;28;20450;-76
2022/04/21 07:18:21;;;;;;;11.40;8.50;;;11.00;59.40;;;10.34;57.58;97390.53;5025652;28;20486;-74
2022/04/21 07:20:47;;;;;;;9.97;9.07;;;11.30;59.30;;;10.63;57.12;97374.56;5026792;28;20542;-74
2022/04/21 07:23:15;;;;;;;11.97;9.70;;;11.60;58.50;;;10.49;56.43;97372.06;5027575;28;20457;-72
2022/04/21 07:25:42;;;;;;;11.23;8.73;;;11.70;58.40;;;10.57;56.94;97370.91;5026601;28;20552;-74
2022/04/21 07:28:09;;;;;;;10.60;9.63;;;11.80;58.40;;;10.72;56.84;97384.00;5027111;28;20499;-74
2022/04/21 07:30:37;;;;;;;14.43;10.20;;;11.80;58.70;;;10.55;57.15;97385.72;5028316;28;20460;-74
2022/04/21 07:33:04;;;;;;;10.50;9.60;;;11.80;58.20;;;10.30;57.84;97378.56;5029021;28;20473;-74
2022/04/21 07:35:32;;;;;;;11.77;10.60;;;11.60;58.30;;;10.28;58.11;97383.38;5025349;28;20450;-75
2022/04/21 07:37:59;;;;;;;11.33;10.17;;;11.50;58.50;;;10.57;56.68;97384.41;5027173;28;20490;-75
2022/04/21 07:40:27;;;;;;;9.60;8.70;;;11.60;58.60;;;10.48;57.14;97383.13;5026623;28;20835;-73
2022/04/21 07:42:54;;;;;;;10.37;9.30;;;11.70;58.20;;;10.30;57.56;97383.94;5027926;28;20523;-73
2022/04/21 07:45:20;;;;;;;9.27;8.37;;;11.50;58.50;;;10.68;56.84;97382.78;5005456;28;20443;-73
2022/04/21 07:47:49;;;;;;;10.50;9.13;;;11.80;58.40;;;10.86;56.64;97381.09;5007053;28;20542;-74
2022/04/21 07:50:16;;;;;;;9.80;8.80;;;11.90;58.30;;;10.93;56.46;97373.69;5019609;28;20482;-75
2022/04/21 07:55:26;;;;;;;14.80;9.83;;;12.30;58.00;;;11.14;56.46;97374.16;5026207;28;20473;-73
2022/04/21 07:57:55;;;;;;;10.00;8.80;;;12.40;58.20;;;11.60;54.43;97374.38;5027302;28;20457;-74
2022/04/21 08:00:22;;;;;;;11.07;9.90;;;12.60;57.30;;;11.73;54.33;97373.28;5044835;28;20449;-74
2022/04/21 08:02:51;;;;;;;9.53;8.47;;;12.70;57.20;;;11.72;53.92;97367.06;5027040;28;20472;-75
2022/04/21 08:05:19;;;;;;;9.30;8.47;;;13.00;56.50;;;12.00;53.12;97380.84;5019324;28;20464;-74
2022/04/21 08:07:48;;;;;;;11.57;9.00;;;13.10;56.30;;;12.30;52.35;97393.38;5023985;28;20511;-75
2022/04/21 08:10:16;;;;;;;8.17;7.43;;;13.30;55.70;;;12.02;52.89;97379.59;5026905;28;20474;-76
2022/04/21 08:12:46;;;;;;;10.37;8.93;;;13.20;55.40;;;11.89;53.01;97379.84;5027616;28;20474;-73
2022/04/21 08:15:21;;;;;;;8.40;7.50;;;13.10;55.80;;;11.60;54.03;97372.50;5041545;28;20462;-75
2022/04/21 08:17:50;;;;;;;8.77;7.87;;;12.90;55.70;;;12.14;52.84;97376.03;5041251;28;20452;-76
2022/04/21 08:20:17;;;;;;;12.77;8.87;;;13.00;55.80;;;11.55;54.08;97369.66;5021241;28;20553;-74
2022/04/21 08:22:44;;;;;;;9.20;7.70;;;13.00;55.40;;;12.15;52.84;97378.47;5026605;28;20898;-74
2022/04/21 08:33:26;;;;;;;8.03;7.23;;;13.20;55.20;;;12.30;52.06;97363.59;5012234;28;20445;-73
2022/04/21 08:35:58;;;;;;;8.00;7.30;;;13.40;54.80;;;12.31;51.64;97359.81;5022127;28;20438;-75
2022/04/21 08:38:25;;;;;;;7.40;6.70;;;13.50;54.60;;;12.47;52.00;97364.44;5024477;28;20453;-74
2022/04/21 08:40:54;;;;;;;6.67;6.00;;;13.60;54.80;;;12.85;50.61;97361.28;5024951;28;20446;-73
2022/04/21 08:43:23;;;;;;;11.70;6.97;;;13.90;54.30;;;12.60;51.36;97365.19;5013147;28;20444;-73
2022/04/21 08:45:51;;;;;;;7.50;6.80;;;13.80;54.10;;;12.60;50.94;97357.06;5024898;28;20495;-75
2022/04/21 08:48:20;;;;;;;7.63;6.87;;;13.80;54.00;;;11.96;51.44;97269.53;5030458;28;20449;-75
2022/04/21 08:50:49;;;;;;;6.53;6.00;;;13.80;54.00;;;12.38;51.34;97365.06;5028039;28;20467;-74
2022/04/21 08:53:19;;;;;;;7.70;7.00;;;13.60;53.70;;;12.42;51.33;97355.41;5028982;28;20537;-73
2022/04/21 08:55:47;;;;;;;7.30;6.50;;;13.60;53.80;;;12.38;51.13;97357.78;5028014;28;20885;-75
2022/04/21 08:58:14;;;;;;;6.70;6.10;;;13.50;53.60;;;12.27;51.31;97369.50;5025911;28;20465;-72
2022/04/21 09:00:42;;;;;;;7.67;6.97;;;13.50;53.40;;;11.99;52.06;97352.97;5024711;28;20463;-74
2022/04/21 09:03:10;;;;;;;6.27;5.63;;;13.20;53.80;;;12.49;50.66;97337.09;5031953;28;20929;-73
2022/04/21 09:05:38;;;;;;;7.10;6.40;;;13.60;53.60;;;12.74;50.67;97352.97;5025416;28;20448;-75
2022/04/21 09:08:18;;;;;;;6.20;5.63;;;13.80;53.60;;;12.68;50.13;97350.41;5038170;28;20823;-75
2022/04/21 09:10:45;;;;;;;7.70;6.50;;;13.90;53.10;;;12.84;49.68;97352.31;5030785;28;20492;-76
2022/04/21 09:13:12;;;;;;;6.47;5.97;;;14.00;52.60;;;13.48;48.07;97346.75;5029431;28;21191;-73
2022/04/21 09:15:43;;;;;;;20.87;7.67;;;14.30;52.40;;;13.70;47.30;97341.34;5025864;28;20457;-76
2022/04/21 09:18:13;;;;;;;6.80;5.90;;;14.80;52.00;;;13.59;47.97;97346.66;5030082;28;20678;-73
2022/04/21 09:20:40;;;;;;;10.43;5.90;;;14.70;52.00;;;13.53;48.39;97344.94;5028619;28;20544;-75
2022/04/21 09:23:11;;;;;;;6.80;6.10;;;14.70;52.00;;;13.84;47.94;97330.94;5030827;28;20543;-74
2022/04/21 09:25:48;;;;;;;6.60;5.57;;;14.80;52.00;;;13.71;48.58;97332.13;5031841;28;20508;-74
2022/04/21 09:28:26;;;;;;;6.90;6.20;;;15.00;52.10;;;13.54;48.13;97333.00;5029451;28;20453;-72
2022/04/21 09:30:59;;;;;;;6.60;5.57;;;14.80;51.60;;;13.74;47.89;97342.50;5029408;28;20995;-74
2022/04/21 09:33:28;;;;;;;5.73;5.23;;;14.80;51.50;;;13.73;47.68;97340.88;5030059;28;20438;-73
2022/04/21 09:35:57;;;;;;;6.33;5.70;;;14.90;51.50;;;13.50;48.21;97340.00;5028470;28;20438;-76
2022/04/21 09:38:26;;;;;;;6.33;5.63;;;14.70;51.50;;;13.63;47.42;97336.09;5022979;28;20529;-75
2022/04/21 09:40:53;;;;;;;6.37;5.87;;;14.70;50.90;;;13.64;47.40;97334.22;5028560;28;20531;-74
2022/04/21 09:43:28;;;;;;;7.73;5.77;;;14.80;51.00;;;14.04;46.74;97335.78;5026856;28;20553;-74
2022/04/21 09:46:10;;;;;;;6.20;5.60;;;15.10;51.10;;;13.84;46.71;97329.03;5027241;28;20506;-74
2022/04/21 09:48:38;;;;;;;6.30;5.80;;;15.20;50.50;;;14.07;46.27;97324.41;5024523;28;20465;-74
2022/04/21 09:51:11;;;;;;;7.13;5.40;;;15.10;50.70;;;14.58;45.93;97325.97;5027997;28;21019;-73
2022/04/21 09:53:56;;;;;;;5.53;4.90;;;15.50;50.60;;;14.51;45.21;97322.66;5028425;28;20534;-75
2022/04/21 09:56:32;;;;;;;5.77;5.27;;;15.70;49.70;;;14.07;46.58;97318.16;5027826;28;20531;-73
2022/04/21 09:59:00;;;;;;;6.43;5.63;;;15.40;50.20;;;14.09;46.44;97314.09;5027271;28;20816;-74
2022/04/21 10:01:27;;;;;;;6.07;5.57;;;15.30;50.40;;;14.79;45.41;97305.25;5027229;28;20470;-74
2022/04/21 10:03:54;;;;;;;6.40;5.83;;;15.60;50.30;;;15.14;45.21;97300.31;5026322;28;20446;-73
2022/04/21 10:06:22;;;;;;;4.90;4.50;;;15.80;50.40;;;15.24;43.57;97289.50;5027175;28;21025;-74
2022/04/21 10:08:52;;;;;;;5.13;4.70;;;16.30;49.20;;;14.84;44.08;97234.56;5027717;28;20439;-74
2022/04/21 10:11:23;;;;;;;4.60;4.30;;;16.30;49.40;;;14.80;44.45;97295.22;5030023;28;20550;-75
2022/04/21 10:13:54;;;;;;;4.87;4.47;;;16.00;48.80;;;14.88;44.11;97283.81;5026418;28;20763;-73
2022/04/21 10:16:21;;;;;;;4.60;4.20;;;16.10;48.80;;;14.79;44.21;97288.13;5025571;28;20814;-73
2022/04/21 10:18:51;;;;;;;5.20;4.70;;;15.80;48.80;;;14.61;44.34;97284.69;5027059;28;20995;-74
2022/04/21 10:21:25;;;;;;;5.33;4.93;;;15.80;48.80;;;14.75;44.48;97284.28;5030089;28;20458;-73
2022/04/21 10:23:54;;;;;;;5.50;5.10;;;15.80;49.10;;;14.85;44.81;97274.28;5047677;28;20892;-73
2022/04/21 10:26:37;;;;;;;4.37;4.07;;;15.90;49.10;;;15.08;44.09;97276.88;5040765;28;20462;-73
2022/04/21 10:29:15;;;;;;;5.40;4.30;;;16.10;49.20;;;14.86;44.32;97270.50;5026824;28;20473;-75
2022/04/21 10:31:51;;;;;;;3.60;3.37;;;16.00;48.90;;;14.58;43.35;97219.97;5030701;28;21000;-74
2022/04/21 10:34:33;;;;;;;4.10;3.80;;;16.20;48.20;;;14.95;43.26;97273.56;5022059;28;20505;-75
2022/04/21 10:37:11;;;;;;;3.57;3.37;;;16.10;48.00;;;14.81;43.06;97256.06;5030233;28;20451;-74
2022/04/21 10:39:41;;;;;;;4.20;3.80;;;15.90;47.90;;;14.25;44.26;97265.38;5023756;28;20584;-76
2022/04/21 10:42:18;;;;;;;5.40;3.90;;;15.50;47.80;;;14.42;44.01;97260.63;5026695;28;21278;-75
2022/04/21 10:44:48;;;;;;;3.73;3.43;;;15.40;48.10;;;14.80;43.92;97268.00;5025906;28;20465;-76
2022/04/21 10:47:36;;;;;;;3.90;3.33;;;15.70;48.40;;;15.11;43.52;97269.00;5027005;28;20458;-75
2022/04/21 10:50:19;;;;;;;3.07;2.87;;;16.00;48.30;;;14.71;42.99;97252.19;5026627;28;20458;-73
2022/04/21 10:58:50;;;;;;;3.60;3.23;;;16.20;47.20;;;14.31;43.94;97258.88;5018271;28;20434;-75
2022/04/21 11:01:38;;;;;;;3.47;3.20;;;15.60;47.30;;;14.78;43.33;97253.84;5030442;28;20956;-75
2022/04/21 11:04:19;;;;;;;3.97;3.67;;;15.80;47.70;;;14.67;43.19;97245.59;5018358;28;21024;-72
2022/04/21 11:06:47;;;;;;;3.23;3.00;;;15.70;47.60;;;14.54;43.05;97246.84;5025173;28;20465;-73
2022/04/21 11:09:38;;;;;;;3.40;3.10;;;15.60;47.50;;;14.09;44.35;97246.22;5026718;28;20561;-74
2022/04/21 11:12:09;;;;;;;6.30;3.90;;;15.30;47.30;;;14.30;44.43;97240.94;5028234;28;20581;-74
2022/04/21 11:14:39;;;;;;;3.47;3.10;;;15.40;47.90;;;13.97;45.25;97245.53;5037628;28;20453;-73